sensor_id;sensor_type;location;lat;lon;timestamp;pressure;altitude;pressure_sealevel;temperature;humidity
56504;BME280;48812;51.606;-0.114;2023-03-14T00:01:11;97990.38;;;17.66;57.28
56504;BME280;48812;51.606;-0.114;2023-03-14T00:03:44;97988.72;;;17.65;56.58
56504;BME280;48812;51.606;-0.114;2023-03-14T00:06:18;97994.88;;;17.66;57.06
56504;BME280;48812;51.606;-0.114;2023-03-14T00:08:50;97997.69;;;17.64;57.17
56504;BME280;48812;51.606;-0.114;2023-03-14T00:11:23;97988.28;;;17.60;56.62
56504;BME280;48812;51.606;-0.114;2023-03-14T00:13:56;97978.44;;;17.61;57.35
56504;BME280;48812;51.606;-0.114;2023-03-14T00:16:30;97980.13;;;17.62;56.80
56504;BME280;48812;51.606;-0.114;2023-03-14T00:19:03;97982.81;;;17.62;56.40
56504;BME280;48812;51.606;-0.114;2023-03-14T00:21:36;97982.94;;;17.60;57.25
56504;BME280;48812;51.606;-0.114;2023-03-14T00:24:08;97986.47;;;17.61;57.21
56504;BME280;48812;51.606;-0.114;2023-03-14T00:26:41;97989.13;;;17.61;56.75
56504;BME280;48812;51.606;-0.114;2023-03-14T00:29:14;97986.59;;;17.59;56.33
56504;BME280;48812;51.606;-0.114;2023-03-14T00:31:46;97992.91;;;17.58;56.63
56504;BME280;48812;51.606;-0.114;2023-03-14T00:34:18;98007.97;;;17.59;57.08
56504;BME280;48812;51.606;-0.114;2023-03-14T00:36:51;98004.59;;;17.57;56.77
56504;BME280;48812;51.606;-0.114;2023-03-14T00:39:24;98011.75;;;17.57;56.58
56504;BME280;48812;51.606;-0.114;2023-03-14T00:41:57;98008.25;;;17.56;56.29
56504;BME280;48812;51.606;-0.114;2023-03-14T00:44:29;98002.91;;;17.56;56.27
56504;BME280;48812;51.606;-0.114;2023-03-14T00:47:02;98016.25;;;17.56;56.95
56504;BME280;48812;51.606;-0.114;2023-03-14T00:49:34;98015.56;;;17.54;57.17
56504;BME280;48812;51.606;-0.114;2023-03-14T00:52:07;98012.19;;;17.52;56.40
56504;BME280;48812;51.606;-0.114;2023-03-14T00:54:39;98014.13;;;17.50;56.63
56504;BME280;48812;51.606;-0.114;2023-03-14T00:57:12;98052.41;;;17.50;56.71
56504;BME280;48812;51.606;-0.114;2023-03-14T00:59:45;98130.84;;;17.49;56.49
56504;BME280;48812;51.606;-0.114;2023-03-14T01:02:18;98120.03;;;17.51;56.29
56504;BME280;48812;51.606;-0.114;2023-03-14T01:04:51;98118.31;;;17.50;56.02
56504;BME280;48812;51.606;-0.114;2023-03-14T01:07:23;98130.97;;;17.48;56.87
56504;BME280;48812;51.606;-0.114;2023-03-14T01:09:56;98140.81;;;17.47;56.51
56504;BME280;48812;51.606;-0.114;2023-03-14T01:12:29;98140.81;;;17.47;56.19
56504;BME280;48812;51.606;-0.114;2023-03-14T01:15:01;98159.94;;;17.43;56.04
56504;BME280;48812;51.606;-0.114;2023-03-14T01:17:34;98157.97;;;17.45;56.84
56504;BME280;48812;51.606;-0.114;2023-03-14T01:20:09;98168.06;;;17.41;56.57
56504;BME280;48812;51.606;-0.114;2023-03-14T01:22:43;98179.59;;;17.42;56.71
56504;BME280;48812;51.606;-0.114;2023-03-14T01:25:16;98190.28;;;17.42;56.28
56504;BME280;48812;51.606;-0.114;2023-03-14T01:27:50;98224.28;;;17.40;56.41
56504;BME280;48812;51.606;-0.114;2023-03-14T01:30:23;98222.59;;;17.39;55.90
56504;BME280;48812;51.606;-0.114;2023-03-14T01:32:56;98228.09;;;17.37;56.10
56504;BME280;48812;51.606;-0.114;2023-03-14T01:35:28;98241.28;;;17.39;55.99
56504;BME280;48812;51.606;-0.114;2023-03-14T01:38:02;98236.13;;;17.37;56.65
56504;BME280;48812;51.606;-0.114;2023-03-14T01:40:41;98251.28;;;17.37;56.05
56504;BME280;48812;51.606;-0.114;2023-03-14T01:43:19;98253.25;;;17.35;55.73
56504;BME280;48812;51.606;-0.114;2023-03-14T01:51:09;98279.09;;;17.34;56.56
56504;BME280;48812;51.606;-0.114;2023-03-14T01:53:43;98285.41;;;17.33;56.06
56504;BME280;48812;51.606;-0.114;2023-03-14T01:56:18;98290.88;;;17.31;55.89
56504;BME280;48812;51.606;-0.114;2023-03-14T01:58:51;98302.53;;;17.30;55.65
56504;BME280;48812;51.606;-0.114;2023-03-14T02:01:25;98308.88;;;17.29;56.53
56504;BME280;48812;51.606;-0.114;2023-03-14T02:04:01;98325.75;;;17.30;55.99
56504;BME280;48812;51.606;-0.114;2023-03-14T02:06:42;98325.03;;;17.28;55.87
56504;BME280;48812;51.606;-0.114;2023-03-14T02:09:20;98327.69;;;17.28;56.07
56504;BME280;48812;51.606;-0.114;2023-03-14T02:11:53;98334.09;;;17.25;56.57
56504;BME280;48812;51.606;-0.114;2023-03-14T02:14:43;98346.03;;;17.21;56.31
56504;BME280;48812;51.606;-0.114;2023-03-14T02:17:27;98350.38;;;17.22;56.13
56504;BME280;48812;51.606;-0.114;2023-03-14T02:20:34;98355.72;;;17.22;56.14
56504;BME280;48812;51.606;-0.114;2023-03-14T02:23:08;98368.50;;;17.19;56.08
56504;BME280;48812;51.606;-0.114;2023-03-14T02:26:02;98361.34;;;17.19;55.97
56504;BME280;48812;51.606;-0.114;2023-03-14T02:28:38;98374.81;;;17.18;55.84
56504;BME280;48812;51.606;-0.114;2023-03-14T02:31:10;98379.28;;;17.17;55.93
56504;BME280;48812;51.606;-0.114;2023-03-14T02:33:44;98389.13;;;17.17;56.51
56504;BME280;48812;51.606;-0.114;2023-03-14T02:36:17;98400.91;;;17.14;56.07
56504;BME280;48812;51.606;-0.114;2023-03-14T02:38:58;98411.59;;;17.14;56.36
56504;BME280;48812;51.606;-0.114;2023-03-14T02:41:33;98420.59;;;17.13;56.15
56504;BME280;48812;51.606;-0.114;2023-03-14T02:44:09;98433.94;;;17.13;55.84
56504;BME280;48812;51.606;-0.114;2023-03-14T02:46:41;98450.94;;;17.12;55.36
56504;BME280;48812;51.606;-0.114;2023-03-14T02:49:14;98456.50;;;17.09;56.22
56504;BME280;48812;51.606;-0.114;2023-03-14T02:51:48;98470.72;;;17.09;56.00
56504;BME280;48812;51.606;-0.114;2023-03-14T02:54:21;98468.31;;;17.06;55.60
56504;BME280;48812;51.606;-0.114;2023-03-14T02:56:55;98476.31;;;17.06;55.97
56504;BME280;48812;51.606;-0.114;2023-03-14T02:59:27;98482.63;;;17.05;55.82
56504;BME280;48812;51.606;-0.114;2023-03-14T03:02:02;98496.09;;;17.04;55.92
56504;BME280;48812;51.606;-0.114;2023-03-14T03:04:36;98493.41;;;17.04;55.94
56504;BME280;48812;51.606;-0.114;2023-03-14T03:07:09;98501.44;;;17.04;55.48
56504;BME280;48812;51.606;-0.114;2023-03-14T03:09:41;98508.72;;;17.02;55.61
56504;BME280;48812;51.606;-0.114;2023-03-14T03:12:14;98498.53;;;16.95;55.66
56504;BME280;48812;51.606;-0.114;2023-03-14T03:14:46;98504.59;;;16.98;55.52
56504;BME280;48812;51.606;-0.114;2023-03-14T03:17:19;98512.59;;;16.98;55.53
56504;BME280;48812;51.606;-0.114;2023-03-14T03:19:52;98514.56;;;16.95;55.75
56504;BME280;48812;51.606;-0.114;2023-03-14T03:22:25;98523.56;;;16.94;55.87
56504;BME280;48812;51.606;-0.114;2023-03-14T03:24:57;98527.19;;;16.93;55.54
56504;BME280;48812;51.606;-0.114;2023-03-14T03:27:31;98527.31;;;16.92;55.37
56504;BME280;48812;51.606;-0.114;2023-03-14T03:30:06;98539.81;;;16.91;55.66
56504;BME280;48812;51.606;-0.114;2023-03-14T03:32:39;98547.06;;;16.89;55.26
56504;BME280;48812;51.606;-0.114;2023-03-14T03:35:12;98562.25;;;16.89;55.81
56504;BME280;48812;51.606;-0.114;2023-03-14T03:37:46;98574.03;;;16.86;55.28
56504;BME280;48812;51.606;-0.114;2023-03-14T03:40:18;98570.50;;;16.86;55.60
56504;BME280;48812;51.606;-0.114;2023-03-14T03:42:51;98570.84;;;16.81;55.52
56504;BME280;48812;51.606;-0.114;2023-03-14T03:45:23;98582.16;;;16.85;55.13
56504;BME280;48812;51.606;-0.114;2023-03-14T03:47:59;98590.28;;;16.83;55.02
56504;BME280;48812;51.606;-0.114;2023-03-14T03:50:32;98600.09;;;16.83;55.78
56504;BME280;48812;51.606;-0.114;2023-03-14T03:53:04;98608.22;;;16.81;55.31
56504;BME280;48812;51.606;-0.114;2023-03-14T03:55:36;98612.09;;;16.77;55.11
56504;BME280;48812;51.606;-0.114;2023-03-14T03:58:09;98609.56;;;16.75;55.13
56504;BME280;48812;51.606;-0.114;2023-03-14T04:00:41;98619.16;;;16.78;55.33
56504;BME280;48812;51.606;-0.114;2023-03-14T04:03:14;98630.06;;;16.75;55.30
56504;BME280;48812;51.606;-0.114;2023-03-14T04:05:46;98635.41;;;16.75;55.29
56504;BME280;48812;51.606;-0.114;2023-03-14T04:08:19;98633.69;;;16.74;55.11
56504;BME280;48812;51.606;-0.114;2023-03-14T04:10:59;98631.16;;;16.72;55.22
56504;BME280;48812;51.606;-0.114;2023-03-14T04:13:50;98637.59;;;16.70;54.69
56504;BME280;48812;51.606;-0.114;2023-03-14T04:16:24;98639.50;;;16.68;55.02
56504;BME280;48812;51.606;-0.114;2023-03-14T04:19:03;98652.13;;;16.66;54.90
56504;BME280;48812;51.606;-0.114;2023-03-14T04:21:37;98668.97;;;16.66;55.04
56504;BME280;48812;51.606;-0.114;2023-03-14T04:24:15;98674.41;;;16.65;55.08
56504;BME280;48812;51.606;-0.114;2023-03-14T04:26:51;98676.59;;;16.59;54.84
56504;BME280;48812;51.606;-0.114;2023-03-14T04:29:24;98681.81;;;16.61;54.69
56504;BME280;48812;51.606;-0.114;2023-03-14T04:31:56;98697.94;;;16.59;54.65
56504;BME280;48812;51.606;-0.114;2023-03-14T04:34:29;98697.44;;;16.54;55.13
56504;BME280;48812;51.606;-0.114;2023-03-14T04:37:02;98718.56;;;16.57;54.56
56504;BME280;48812;51.606;-0.114;2023-03-14T04:39:40;98733.84;;;16.55;54.58
56504;BME280;48812;51.606;-0.114;2023-03-14T04:42:21;98729.47;;;16.54;55.29
56504;BME280;48812;51.606;-0.114;2023-03-14T04:44:54;98745.56;;;16.53;55.04
56504;BME280;48812;51.606;-0.114;2023-03-14T04:47:29;98744.84;;;16.51;54.44
56504;BME280;48812;51.606;-0.114;2023-03-14T04:50:02;98741.34;;;16.50;54.79
56504;BME280;48812;51.606;-0.114;2023-03-14T04:52:35;98757.56;;;16.47;55.13
56504;BME280;48812;51.606;-0.114;2023-03-14T04:55:09;98761.91;;;16.48;54.72
56504;BME280;48812;51.606;-0.114;2023-03-14T04:57:42;98768.25;;;16.47;54.66
56504;BME280;48812;51.606;-0.114;2023-03-14T05:00:15;98770.41;;;16.42;54.61
56504;BME280;48812;51.606;-0.114;2023-03-14T05:03:06;98778.28;;;16.44;54.51
56504;BME280;48812;51.606;-0.114;2023-03-14T05:05:57;98785.41;;;16.43;54.45
56504;BME280;48812;51.606;-0.114;2023-03-14T05:09:06;98782.25;;;16.38;54.15
56504;BME280;48812;51.606;-0.114;2023-03-14T05:11:38;98784.91;;;16.38;54.43
56504;BME280;48812;51.606;-0.114;2023-03-14T05:14:28;98794.63;;;16.39;54.45
56504;BME280;48812;51.606;-0.114;2023-03-14T05:17:33;98800.19;;;16.36;54.69
56504;BME280;48812;51.606;-0.114;2023-03-14T05:20:08;98794.84;;;16.36;54.29
56504;BME280;48812;51.606;-0.114;2023-03-14T05:23:17;98810.13;;;16.34;54.43
56504;BME280;48812;51.606;-0.114;2023-03-14T05:26:02;98801.25;;;16.33;54.30
56504;BME280;48812;51.606;-0.114;2023-03-14T05:28:34;98813.00;;;16.31;54.37
56504;BME280;48812;51.606;-0.114;2023-03-14T05:31:33;98816.84;;;16.27;54.42
56504;BME280;48812;51.606;-0.114;2023-03-14T05:34:16;98835.41;;;16.28;54.65
56504;BME280;48812;51.606;-0.114;2023-03-14T05:37:01;98835.63;;;16.25;54.12
56504;BME280;48812;51.606;-0.114;2023-03-14T05:44:11;98859.00;;;16.21;54.32
56504;BME280;48812;51.606;-0.114;2023-03-14T05:47:00;98860.00;;;16.20;53.98
56504;BME280;48812;51.606;-0.114;2023-03-14T05:49:33;98880.56;;;16.18;54.05
56504;BME280;48812;51.606;-0.114;2023-03-14T05:52:18;98884.09;;;16.19;54.40
56504;BME280;48812;51.606;-0.114;2023-03-14T05:55:13;98895.81;;;16.16;54.19
56504;BME280;48812;51.606;-0.114;2023-03-14T05:58:12;98888.75;;;16.15;54.46
56504;BME280;48812;51.606;-0.114;2023-03-14T06:01:16;98896.91;;;16.14;54.42
56504;BME280;48812;51.606;-0.114;2023-03-14T06:04:05;98899.69;;;16.12;54.30
56504;BME280;48812;51.606;-0.114;2023-03-14T06:06:38;98899.97;;;16.08;54.22
56504;BME280;48812;51.606;-0.114;2023-03-14T06:09:11;98910.75;;;16.06;54.01
56504;BME280;48812;51.606;-0.114;2023-03-14T06:11:47;98924.81;;;16.08;53.99
56504;BME280;48812;51.606;-0.114;2023-03-14T06:14:19;98926.72;;;16.06;54.09
56504;BME280;48812;51.606;-0.114;2023-03-14T06:16:53;98930.34;;;16.05;54.00
56504;BME280;48812;51.606;-0.114;2023-03-14T06:19:28;98932.50;;;16.00;54.07
56504;BME280;48812;51.606;-0.114;2023-03-14T06:22:00;98948.28;;;16.03;54.22
56504;BME280;48812;51.606;-0.114;2023-03-14T06:24:33;98954.56;;;16.02;54.05
56504;BME280;48812;51.606;-0.114;2023-03-14T06:27:05;98962.75;;;15.99;54.08
56504;BME280;48812;51.606;-0.114;2023-03-14T06:29:38;98971.53;;;16.01;53.91
56504;BME280;48812;51.606;-0.114;2023-03-14T06:32:12;98978.75;;;15.99;54.08
56504;BME280;48812;51.606;-0.114;2023-03-14T06:34:45;98984.31;;;15.96;53.95
56504;BME280;48812;51.606;-0.114;2023-03-14T06:37:17;98993.16;;;15.96;53.83
56504;BME280;48812;51.606;-0.114;2023-03-14T06:39:53;99001.38;;;15.93;54.06
56504;BME280;48812;51.606;-0.114;2023-03-14T06:42:48;99008.50;;;15.93;53.62
56504;BME280;48812;51.606;-0.114;2023-03-14T06:45:22;99019.28;;;15.91;53.83
56504;BME280;48812;51.606;-0.114;2023-03-14T06:47:55;99027.38;;;15.90;54.03
56504;BME280;48812;51.606;-0.114;2023-03-14T06:50:35;99023.97;;;15.88;53.83
56504;BME280;48812;51.606;-0.114;2023-03-14T06:53:08;99039.97;;;15.88;53.97
56504;BME280;48812;51.606;-0.114;2023-03-14T06:55:44;99049.75;;;15.87;53.90
56504;BME280;48812;51.606;-0.114;2023-03-14T06:58:19;99059.56;;;15.86;53.78
56504;BME280;48812;51.606;-0.114;2023-03-14T07:00:53;99068.31;;;15.89;53.95
56504;BME280;48812;51.606;-0.114;2023-03-14T07:03:30;99069.28;;;15.88;53.96
56504;BME280;48812;51.606;-0.114;2023-03-14T07:06:04;99075.25;;;15.91;53.82
56504;BME280;48812;51.606;-0.114;2023-03-14T07:08:38;99084.00;;;15.93;53.58
56504;BME280;48812;51.606;-0.114;2023-03-14T07:11:11;99091.88;;;15.95;53.92
56504;BME280;48812;51.606;-0.114;2023-03-14T07:13:44;99098.94;;;15.96;53.83
56504;BME280;48812;51.606;-0.114;2023-03-14T07:16:16;99094.56;;;15.95;54.14
56504;BME280;48812;51.606;-0.114;2023-03-14T07:18:49;99112.03;;;15.99;53.84
56504;BME280;48812;51.606;-0.114;2023-03-14T07:21:22;99121.66;;;16.01;53.85
56504;BME280;48812;51.606;-0.114;2023-03-14T07:23:55;99136.59;;;16.04;54.44
56504;BME280;48812;51.606;-0.114;2023-03-14T07:26:27;99140.09;;;16.04;54.38
56504;BME280;48812;51.606;-0.114;2023-03-14T07:28:59;99158.78;;;16.04;54.24
56504;BME280;48812;51.606;-0.114;2023-03-14T07:31:32;99173.53;;;16.10;54.15
56504;BME280;48812;51.606;-0.114;2023-03-14T07:34:06;99183.97;;;16.13;54.43
56504;BME280;48812;51.606;-0.114;2023-03-14T07:36:42;99190.28;;;16.12;54.35
56504;BME280;48812;51.606;-0.114;2023-03-14T07:39:14;99211.41;;;16.15;54.29
56504;BME280;48812;51.606;-0.114;2023-03-14T07:42:05;99205.13;;;16.16;54.46
56504;BME280;48812;51.606;-0.114;2023-03-14T07:44:52;99217.69;;;16.14;54.47
56504;BME280;48812;51.606;-0.114;2023-03-14T07:47:25;99239.47;;;16.21;54.74
56504;BME280;48812;51.606;-0.114;2023-03-14T07:49:58;99244.72;;;16.22;54.80
56504;BME280;48812;51.606;-0.114;2023-03-14T07:52:31;99252.72;;;16.22;54.79
56504;BME280;48812;51.606;-0.114;2023-03-14T07:55:03;99272.13;;;16.25;54.99
56504;BME280;48812;51.606;-0.114;2023-03-14T07:57:36;99288.88;;;16.27;54.74
56504;BME280;48812;51.606;-0.114;2023-03-14T08:00:09;99287.94;;;16.28;54.78
56504;BME280;48812;51.606;-0.114;2023-03-14T08:02:44;99308.31;;;16.29;54.80
56504;BME280;48812;51.606;-0.114;2023-03-14T08:05:17;99314.41;;;16.31;55.18
56504;BME280;48812;51.606;-0.114;2023-03-14T08:07:49;99332.44;;;16.27;54.85
56504;BME280;48812;51.606;-0.114;2023-03-14T08:10:22;99344.59;;;16.31;54.80
56504;BME280;48812;51.606;-0.114;2023-03-14T08:12:56;99345.66;;;16.29;54.90
56504;BME280;48812;51.606;-0.114;2023-03-14T08:15:30;99369.44;;;16.32;54.96
56504;BME280;48812;51.606;-0.114;2023-03-14T08:18:03;99378.22;;;16.34;55.23
56504;BME280;48812;51.606;-0.114;2023-03-14T08:20:36;99386.97;;;16.36;55.28
56504;BME280;48812;51.606;-0.114;2023-03-14T08:23:09;99400.31;;;16.36;55.46
56504;BME280;48812;51.606;-0.114;2023-03-14T08:25:41;99419.75;;;16.38;55.41
56504;BME280;48812;51.606;-0.114;2023-03-14T08:28:13;99409.16;;;16.36;55.38
56504;BME280;48812;51.606;-0.114;2023-03-14T08:30:46;99434.81;;;16.39;55.42
56504;BME280;48812;51.606;-0.114;2023-03-14T08:33:19;99441.81;;;16.40;55.43
56504;BME280;48812;51.606;-0.114;2023-03-14T08:35:53;99448.03;;;16.40;55.65
56504;BME280;48812;51.606;-0.114;2023-03-14T08:38:25;99462.13;;;16.43;55.69
56504;BME280;48812;51.606;-0.114;2023-03-14T08:41:00;99468.31;;;16.43;55.61
56504;BME280;48812;51.606;-0.114;2023-03-14T08:43:34;99475.47;;;16.43;55.50
56504;BME280;48812;51.606;-0.114;2023-03-14T08:46:07;99491.38;;;16.44;55.36
56504;BME280;48812;51.606;-0.114;2023-03-14T08:48:39;99501.97;;;16.46;55.31
56504;BME280;48812;51.606;-0.114;2023-03-14T08:51:13;99522.47;;;16.45;55.37
56504;BME280;48812;51.606;-0.114;2023-03-14T08:53:46;99532.16;;;16.46;55.65
56504;BME280;48812;51.606;-0.114;2023-03-14T08:56:18;99544.56;;;16.47;55.58
56504;BME280;48812;51.606;-0.114;2023-03-14T08:58:51;99544.56;;;16.47;55.15
56504;BME280;48812;51.606;-0.114;2023-03-14T09:01:23;99557.81;;;16.49;55.44
56504;BME280;48812;51.606;-0.114;2023-03-14T09:03:57;99564.25;;;16.45;55.45
56504;BME280;48812;51.606;-0.114;2023-03-14T09:06:30;99580.94;;;16.48;55.25
56504;BME280;48812;51.606;-0.114;2023-03-14T09:09:02;99587.25;;;16.47;55.22
56504;BME280;48812;51.606;-0.114;2023-03-14T09:11:35;99596.19;;;16.46;55.26
56504;BME280;48812;51.606;-0.114;2023-03-14T09:14:07;99605.34;;;16.42;55.45
56504;BME280;48812;51.606;-0.114;2023-03-14T09:16:39;99615.94;;;16.44;55.33
56504;BME280;48812;51.606;-0.114;2023-03-14T09:19:12;99624.97;;;16.41;55.09
56504;BME280;48812;51.606;-0.114;2023-03-14T09:21:44;99623.22;;;16.40;55.23
56504;BME280;48812;51.606;-0.114;2023-03-14T09:24:17;99636.56;;;16.40;55.27
56504;BME280;48812;51.606;-0.114;2023-03-14T09:26:49;99639.38;;;16.38;55.02
56504;BME280;48812;51.606;-0.114;2023-03-14T09:29:21;99648.31;;;16.37;54.96
56504;BME280;48812;51.606;-0.114;2023-03-14T09:31:55;99650.13;;;16.37;55.59
56504;BME280;48812;51.606;-0.114;2023-03-14T09:34:27;99660.00;;;16.35;55.55
56504;BME280;48812;51.606;-0.114;2023-03-14T09:37:00;99675.81;;;16.38;55.33
56504;BME280;48812;51.606;-0.114;2023-03-14T09:39:32;99689.16;;;16.38;55.19
56504;BME280;48812;51.606;-0.114;2023-03-14T09:42:07;99701.75;;;16.36;55.62
56504;BME280;48812;51.606;-0.114;2023-03-14T09:44:59;99714.16;;;16.37;55.20
56504;BME280;48812;51.606;-0.114;2023-03-14T09:47:34;99717.75;;;16.36;55.31
56504;BME280;48812;51.606;-0.114;2023-03-14T09:50:14;99731.94;;;16.36;55.19
56504;BME280;48812;51.606;-0.114;2023-03-14T09:52:50;99732.91;;;16.35;55.00
56504;BME280;48812;51.606;-0.114;2023-03-14T09:55:24;99746.34;;;16.34;55.38
56504;BME280;48812;51.606;-0.114;2023-03-14T09:58:00;99754.25;;;16.35;55.09
56504;BME280;48812;51.606;-0.114;2023-03-14T10:00:35;99758.72;;;16.35;54.77
56504;BME280;48812;51.606;-0.114;2023-03-14T10:05:46;99779.28;;;16.33;55.26
56504;BME280;48812;51.606;-0.114;2023-03-14T10:08:18;99779.28;;;16.33;55.17
56504;BME280;48812;51.606;-0.114;2023-03-14T10:10:51;99775.09;;;16.29;54.79
56504;BME280;48812;51.606;-0.114;2023-03-14T10:13:27;99775.84;;;16.31;54.72
56504;BME280;48812;51.606;-0.114;2023-03-14T10:16:03;99783.00;;;16.30;55.00
56504;BME280;48812;51.606;-0.114;2023-03-14T10:18:36;99795.28;;;16.33;55.27
56504;BME280;48812;51.606;-0.114;2023-03-14T10:23:52;99810.34;;;16.34;54.52
56504;BME280;48812;51.606;-0.114;2023-03-14T10:26:27;99814.91;;;16.32;54.99
56504;BME280;48812;51.606;-0.114;2023-03-14T10:29:11;99822.72;;;16.35;54.69
56504;BME280;48812;51.606;-0.114;2023-03-14T10:31:58;99821.03;;;16.34;54.82
56504;BME280;48812;51.606;-0.114;2023-03-14T10:34:36;99829.13;;;16.32;54.83
56504;BME280;48812;51.606;-0.114;2023-03-14T10:37:21;99837.13;;;16.32;54.77
56504;BME280;48812;51.606;-0.114;2023-03-14T10:39:56;99851.22;;;16.34;54.58
56504;BME280;48812;51.606;-0.114;2023-03-14T10:42:33;99856.81;;;16.30;54.97
56504;BME280;48812;51.606;-0.114;2023-03-14T10:45:39;99868.16;;;16.33;54.54
56504;BME280;48812;51.606;-0.114;2023-03-14T10:48:34;99875.31;;;16.33;54.91
56504;BME280;48812;51.606;-0.114;2023-03-14T10:54:02;99880.81;;;16.30;54.64
56504;BME280;48812;51.606;-0.114;2023-03-14T10:56:37;99887.81;;;16.32;54.62
56504;BME280;48812;51.606;-0.114;2023-03-14T10:59:13;99901.06;;;16.34;54.60
56504;BME280;48812;51.606;-0.114;2023-03-14T11:02:12;99909.06;;;16.34;54.73
56504;BME280;48812;51.606;-0.114;2023-03-14T11:07:44;99930.50;;;16.32;54.40
56504;BME280;48812;51.606;-0.114;2023-03-14T11:16:19;99945.97;;;16.26;54.46
56504;BME280;48812;51.606;-0.114;2023-03-14T11:19:08;99951.31;;;16.26;54.85
56504;BME280;48812;51.606;-0.114;2023-03-14T11:22:01;99956.63;;;16.26;54.36
56504;BME280;48812;51.606;-0.114;2023-03-14T11:27:44;99965.66;;;16.23;54.36
56504;BME280;48812;51.606;-0.114;2023-03-14T11:30:35;99974.63;;;16.22;54.57
56504;BME280;48812;51.606;-0.114;2023-03-14T11:33:36;99965.91;;;16.18;54.64
56504;BME280;48812;51.606;-0.114;2023-03-14T11:36:12;99984.50;;;16.20;54.72
56504;BME280;48812;51.606;-0.114;2023-03-14T11:38:52;99998.78;;;16.19;54.64
56504;BME280;48812;51.606;-0.114;2023-03-14T11:41:36;99996.22;;;16.17;54.58
56504;BME280;48812;51.606;-0.114;2023-03-14T11:44:25;100005.81;;;16.20;54.86
56504;BME280;48812;51.606;-0.114;2023-03-14T11:47:06;100004.13;;;16.19;54.59
56504;BME280;48812;51.606;-0.114;2023-03-14T11:52:34;100022.72;;;16.20;54.60
56504;BME280;48812;51.606;-0.114;2023-03-14T11:55:28;100022.72;;;16.20;54.62
56504;BME280;48812;51.606;-0.114;2023-03-14T11:58:14;100028.06;;;16.20;54.39
56504;BME280;48812;51.606;-0.114;2023-03-14T12:00:49;100019.97;;;16.22;54.49
56504;BME280;48812;51.606;-0.114;2023-03-14T12:09:10;100035.84;;;16.23;54.39
56504;BME280;48812;51.606;-0.114;2023-03-14T12:11:50;100045.59;;;16.25;54.30
56504;BME280;48812;51.606;-0.114;2023-03-14T12:14:27;100047.34;;;16.26;54.48
56504;BME280;48812;51.606;-0.114;2023-03-14T12:17:19;100050.00;;;16.26;54.49
56504;BME280;48812;51.606;-0.114;2023-03-14T12:20:25;100040.25;;;16.25;54.41
56504;BME280;48812;51.606;-0.114;2023-03-14T12:23:10;100054.38;;;16.27;54.14
56504;BME280;48812;51.606;-0.114;2023-03-14T12:25:44;100052.66;;;16.26;54.34
56504;BME280;48812;51.606;-0.114;2023-03-14T12:28:30;100056.25;;;16.25;54.45
56504;BME280;48812;51.606;-0.114;2023-03-14T12:39:40;100076.59;;;16.27;54.33
56504;BME280;48812;51.606;-0.114;2023-03-14T12:45:30;100062.53;;;16.23;53.88
56504;BME280;48812;51.606;-0.114;2023-03-14T12:48:17;100068.84;;;16.22;54.67
56504;BME280;48812;51.606;-0.114;2023-03-14T12:50:56;100067.09;;;16.21;54.22
56504;BME280;48812;51.606;-0.114;2023-03-14T13:01:58;100080.28;;;16.25;54.00
56504;BME280;48812;51.606;-0.114;2023-03-14T13:04:34;100077.44;;;16.28;54.18
56504;BME280;48812;51.606;-0.114;2023-03-14T13:12:57;100095.19;;;16.29;53.88
56504;BME280;48812;51.606;-0.114;2023-03-14T13:15:44;100103.97;;;16.31;53.94
56504;BME280;48812;51.606;-0.114;2023-03-14T13:18:28;100105.66;;;16.32;54.09
56504;BME280;48812;51.606;-0.114;2023-03-14T13:21:11;100105.50;;;16.35;54.12
56504;BME280;48812;51.606;-0.114;2023-03-14T13:24:06;100102.59;;;16.39;53.57
56504;BME280;48812;51.606;-0.114;2023-03-14T13:26:42;100117.59;;;16.42;53.62
56504;BME280;48812;51.606;-0.114;2023-03-14T13:29:30;100115.72;;;16.44;53.83
56504;BME280;48812;51.606;-0.114;2023-03-14T13:32:17;100102.97;;;16.49;53.66
56504;BME280;48812;51.606;-0.114;2023-03-14T13:34:51;100114.41;;;16.51;53.77
56504;BME280;48812;51.606;-0.114;2023-03-14T13:37:25;100120.66;;;16.52;53.42
56504;BME280;48812;51.606;-0.114;2023-03-14T13:39:58;100115.22;;;16.53;53.31
56504;BME280;48812;51.606;-0.114;2023-03-14T13:42:31;100123.22;;;16.53;53.39
56504;BME280;48812;51.606;-0.114;2023-03-14T13:45:03;100127.59;;;16.54;53.47
56504;BME280;48812;51.606;-0.114;2023-03-14T13:47:38;100127.59;;;16.54;53.26
56504;BME280;48812;51.606;-0.114;2023-03-14T13:50:16;100139.88;;;16.58;53.11
56504;BME280;48812;51.606;-0.114;2023-03-14T13:52:55;100135.28;;;16.61;53.34
56504;BME280;48812;51.606;-0.114;2023-03-14T13:55:29;100142.97;;;16.67;52.80
56504;BME280;48812;51.606;-0.114;2023-03-14T13:58:02;100150.63;;;16.73;52.67
56504;BME280;48812;51.606;-0.114;2023-03-14T14:00:34;100163.06;;;16.74;52.65
56504;BME280;48812;51.606;-0.114;2023-03-14T14:03:10;100155.91;;;16.74;52.84
56504;BME280;48812;51.606;-0.114;2023-03-14T14:05:44;100163.06;;;16.74;52.23
56504;BME280;48812;51.606;-0.114;2023-03-14T14:08:17;100158.66;;;16.73;52.52
56504;BME280;48812;51.606;-0.114;2023-03-14T14:10:49;100162.03;;;16.76;52.87
56504;BME280;48812;51.606;-0.114;2023-03-14T14:13:24;100168.06;;;16.80;52.78
56504;BME280;48812;51.606;-0.114;2023-03-14T14:15:59;100165.41;;;16.80;51.94
56504;BME280;48812;51.606;-0.114;2023-03-14T14:18:34;100184.88;;;16.82;52.33
56504;BME280;48812;51.606;-0.114;2023-03-14T14:21:09;100186.00;;;16.78;52.19
56504;BME280;48812;51.606;-0.114;2023-03-14T14:23:44;100185.25;;;16.74;52.10
56504;BME280;48812;51.606;-0.114;2023-03-14T14:26:18;100188.66;;;16.78;52.51
56504;BME280;48812;51.606;-0.114;2023-03-14T14:29:04;100189.31;;;17.15;52.16
56504;BME280;48812;51.606;-0.114;2023-03-14T14:31:37;100186.34;;;17.69;51.31
56504;BME280;48812;51.606;-0.114;2023-03-14T14:34:19;100185.84;;;18.39;50.30
56504;BME280;48812;51.606;-0.114;2023-03-14T14:36:52;100190.69;;;19.06;49.28
56504;BME280;48812;51.606;-0.114;2023-03-14T14:39:26;100191.19;;;19.68;48.38
56504;BME280;48812;51.606;-0.114;2023-03-14T14:42:01;100192.84;;;20.38;47.15